sensor_id;sensor_type;location;lat;lon;timestamp;P1;durP1;ratioP1;P2;durP2;ratioP2
6937;SDS011;40040;42.706;23.372;2022-11-20T00:01:10;13.80;;;8.40;;
6937;SDS011;40040;42.706;23.372;2022-11-20T00:03:38;9.88;;;7.82;;
6937;SDS011;40040;42.706;23.372;2022-11-20T00:06:06;13.13;;;7.78;;
6937;SDS011;40040;42.706;23.372;2022-11-20T00:08:34;12.82;;;8.43;;
6937;SDS011;40040;42.706;23.372;2022-11-20T00:11:04;9.02;;;6.50;;
6937;SDS011;40040;42.706;23.372;2022-11-20T00:13:31;9.50;;;6.22;;
6937;SDS011;40040;42.706;23.372;2022-11-20T00:15:58;5.53;;;4.80;;
6937;SDS011;40040;42.706;23.372;2022-11-20T00:18:26;6.50;;;5.00;;
6937;SDS011;40040;42.706;23.372;2022-11-20T00:20:53;4.93;;;4.40;;
6937;SDS011;40040;42.706;23.372;2022-11-20T00:23:20;6.88;;;5.07;;
6937;SDS011;40040;42.706;23.372;2022-11-20T00:25:47;6.15;;;4.47;;
6937;SDS011;40040;42.706;23.372;2022-11-20T00:28:15;8.70;;;5.10;;
6937;SDS011;40040;42.706;23.372;2022-11-20T00:30:42;6.95;;;5.47;;
6937;SDS011;40040;42.706;23.372;2022-11-20T00:33:08;6.40;;;5.43;;
6937;SDS011;40040;42.706;23.372;2022-11-20T00:35:35;6.93;;;4.95;;
6937;SDS011;40040;42.706;23.372;2022-11-20T00:38:02;5.60;;;4.50;;
6937;SDS011;40040;42.706;23.372;2022-11-20T00:40:29;5.93;;;5.15;;
6937;SDS011;40040;42.706;23.372;2022-11-20T00:42:56;9.00;;;6.65;;
6937;SDS011;40040;42.706;23.372;2022-11-20T00:45:24;7.40;;;5.70;;
6937;SDS011;40040;42.706;23.372;2022-11-20T00:47:51;8.10;;;5.97;;
6937;SDS011;40040;42.706;23.372;2022-11-20T00:50:18;10.13;;;6.30;;
6937;SDS011;40040;42.706;23.372;2022-11-20T00:52:45;4.15;;;3.85;;
6937;SDS011;40040;42.706;23.372;2022-11-20T00:55:11;4.85;;;3.97;;
6937;SDS011;40040;42.706;23.372;2022-11-20T00:57:38;2.30;;;2.10;;
6937;SDS011;40040;42.706;23.372;2022-11-20T01:00:06;1.95;;;1.85;;
6937;SDS011;40040;42.706;23.372;2022-11-20T01:02:35;4.60;;;3.60;;
6937;SDS011;40040;42.706;23.372;2022-11-20T01:05:02;6.15;;;5.10;;
6937;SDS011;40040;42.706;23.372;2022-11-20T01:07:29;4.32;;;3.85;;
6937;SDS011;40040;42.706;23.372;2022-11-20T01:09:56;5.20;;;4.70;;
6937;SDS011;40040;42.706;23.372;2022-11-20T01:12:23;5.53;;;3.80;;
6937;SDS011;40040;42.706;23.372;2022-11-20T01:14:50;4.00;;;3.58;;
6937;SDS011;40040;42.706;23.372;2022-11-20T01:17:17;4.80;;;3.72;;
6937;SDS011;40040;42.706;23.372;2022-11-20T01:19:46;6.50;;;4.57;;
6937;SDS011;40040;42.706;23.372;2022-11-20T01:22:15;6.47;;;4.40;;
6937;SDS011;40040;42.706;23.372;2022-11-20T01:24:42;5.50;;;4.00;;
6937;SDS011;40040;42.706;23.372;2022-11-20T01:27:09;1.92;;;1.83;;
6937;SDS011;40040;42.706;23.372;2022-11-20T01:29:36;3.75;;;1.83;;
6937;SDS011;40040;42.706;23.372;2022-11-20T01:32:03;3.67;;;2.20;;
6937;SDS011;40040;42.706;23.372;2022-11-20T01:34:30;2.35;;;2.17;;
6937;SDS011;40040;42.706;23.372;2022-11-20T01:36:59;2.72;;;2.50;;
6937;SDS011;40040;42.706;23.372;2022-11-20T01:39:25;2.50;;;2.40;;
6937;SDS011;40040;42.706;23.372;2022-11-20T01:41:53;3.03;;;2.72;;
6937;SDS011;40040;42.706;23.372;2022-11-20T01:44:43;3.25;;;2.38;;
6937;SDS011;40040;42.706;23.372;2022-11-20T01:47:16;2.00;;;1.70;;
6937;SDS011;40040;42.706;23.372;2022-11-20T01:49:48;1.63;;;1.42;;
6937;SDS011;40040;42.706;23.372;2022-11-20T01:52:20;1.40;;;1.40;;
6937;SDS011;40040;42.706;23.372;2022-11-20T01:54:51;2.30;;;2.20;;
6937;SDS011;40040;42.706;23.372;2022-11-20T01:57:22;2.20;;;2.10;;
6937;SDS011;40040;42.706;23.372;2022-11-20T01:59:54;2.63;;;2.33;;
6937;SDS011;40040;42.706;23.372;2022-11-20T02:02:25;3.30;;;3.00;;
6937;SDS011;40040;42.706;23.372;2022-11-20T02:04:54;3.72;;;2.58;;
6937;SDS011;40040;42.706;23.372;2022-11-20T02:07:28;2.65;;;2.45;;
6937;SDS011;40040;42.706;23.372;2022-11-20T02:09:55;3.53;;;1.70;;
6937;SDS011;40040;42.706;23.372;2022-11-20T02:12:22;1.63;;;1.20;;
6937;SDS011;40040;42.706;23.372;2022-11-20T02:15:03;1.58;;;1.45;;
6937;SDS011;40040;42.706;23.372;2022-11-20T02:17:30;1.90;;;1.80;;
6937;SDS011;40040;42.706;23.372;2022-11-20T02:19:57;1.80;;;1.70;;
6937;SDS011;40040;42.706;23.372;2022-11-20T02:22:25;1.10;;;1.10;;
6937;SDS011;40040;42.706;23.372;2022-11-20T02:25:03;1.05;;;1.05;;
6937;SDS011;40040;42.706;23.372;2022-11-20T02:27:33;2.08;;;1.70;;
6937;SDS011;40040;42.706;23.372;2022-11-20T02:30:00;0.80;;;0.80;;
6937;SDS011;40040;42.706;23.372;2022-11-20T02:32:29;0.95;;;0.90;;
6937;SDS011;40040;42.706;23.372;2022-11-20T02:34:57;1.00;;;1.00;;
6937;SDS011;40040;42.706;23.372;2022-11-20T02:37:26;1.10;;;1.10;;
6937;SDS011;40040;42.706;23.372;2022-11-20T02:39:57;1.02;;;1.02;;
6937;SDS011;40040;42.706;23.372;2022-11-20T02:42:25;1.52;;;1.00;;
6937;SDS011;40040;42.706;23.372;2022-11-20T02:44:52;1.30;;;1.20;;
6937;SDS011;40040;42.706;23.372;2022-11-20T02:47:19;1.00;;;1.00;;
6937;SDS011;40040;42.706;23.372;2022-11-20T02:49:46;1.00;;;1.00;;
6937;SDS011;40040;42.706;23.372;2022-11-20T02:52:13;1.40;;;1.30;;
6937;SDS011;40040;42.706;23.372;2022-11-20T02:54:40;1.30;;;1.15;;
6937;SDS011;40040;42.706;23.372;2022-11-20T02:57:07;2.95;;;1.48;;
6937;SDS011;40040;42.706;23.372;2022-11-20T02:59:35;1.83;;;1.73;;
6937;SDS011;40040;42.706;23.372;2022-11-20T03:02:02;1.40;;;1.40;;
6937;SDS011;40040;42.706;23.372;2022-11-20T03:04:30;1.50;;;1.40;;
6937;SDS011;40040;42.706;23.372;2022-11-20T03:06:57;3.00;;;1.45;;
6937;SDS011;40040;42.706;23.372;2022-11-20T03:09:24;3.50;;;2.28;;
6937;SDS011;40040;42.706;23.372;2022-11-20T03:11:50;1.73;;;1.10;;
6937;SDS011;40040;42.706;23.372;2022-11-20T03:14:17;1.25;;;1.25;;
6937;SDS011;40040;42.706;23.372;2022-11-20T03:16:45;1.80;;;1.27;;
6937;SDS011;40040;42.706;23.372;2022-11-20T03:19:12;2.22;;;2.03;;
6937;SDS011;40040;42.706;23.372;2022-11-20T03:21:40;1.48;;;1.48;;
6937;SDS011;40040;42.706;23.372;2022-11-20T03:24:07;1.70;;;1.60;;
6937;SDS011;40040;42.706;23.372;2022-11-20T03:26:34;1.70;;;1.45;;
6937;SDS011;40040;42.706;23.372;2022-11-20T03:29:02;1.92;;;1.83;;
6937;SDS011;40040;42.706;23.372;2022-11-20T03:31:31;1.95;;;1.63;;
6937;SDS011;40040;42.706;23.372;2022-11-20T03:34:00;2.90;;;1.70;;
6937;SDS011;40040;42.706;23.372;2022-11-20T03:36:29;1.73;;;1.63;;
6937;SDS011;40040;42.706;23.372;2022-11-20T03:38:57;1.70;;;1.60;;
6937;SDS011;40040;42.706;23.372;2022-11-20T03:41:25;1.33;;;1.23;;
6937;SDS011;40040;42.706;23.372;2022-11-20T03:43:54;1.23;;;1.13;;
6937;SDS011;40040;42.706;23.372;2022-11-20T03:46:22;1.10;;;1.10;;
6937;SDS011;40040;42.706;23.372;2022-11-20T03:48:50;1.25;;;1.25;;
6937;SDS011;40040;42.706;23.372;2022-11-20T03:51:19;3.15;;;1.83;;
6937;SDS011;40040;42.706;23.372;2022-11-20T03:53:48;4.88;;;3.92;;
6937;SDS011;40040;42.706;23.372;2022-11-20T03:56:16;3.60;;;3.30;;
6937;SDS011;40040;42.706;23.372;2022-11-20T03:58:45;1.00;;;1.00;;
6937;SDS011;40040;42.706;23.372;2022-11-20T04:01:13;1.20;;;1.10;;
6937;SDS011;40040;42.706;23.372;2022-11-20T04:03:41;3.13;;;2.50;;
6937;SDS011;40040;42.706;23.372;2022-11-20T04:06:10;1.70;;;1.60;;
6937;SDS011;40040;42.706;23.372;2022-11-20T04:08:39;10.30;;;8.57;;
6937;SDS011;40040;42.706;23.372;2022-11-20T04:11:08;3.00;;;2.80;;
6937;SDS011;40040;42.706;23.372;2022-11-20T04:13:38;2.85;;;2.65;;
6937;SDS011;40040;42.706;23.372;2022-11-20T04:16:06;2.90;;;2.67;;
6937;SDS011;40040;42.706;23.372;2022-11-20T04:18:34;1.52;;;1.20;;
6937;SDS011;40040;42.706;23.372;2022-11-20T04:21:01;2.58;;;1.60;;
6937;SDS011;40040;42.706;23.372;2022-11-20T04:23:28;1.10;;;1.10;;
6937;SDS011;40040;42.706;23.372;2022-11-20T04:26:01;1.00;;;1.00;;
6937;SDS011;40040;42.706;23.372;2022-11-20T04:28:29;2.00;;;1.52;;
6937;SDS011;40040;42.706;23.372;2022-11-20T04:31:01;1.75;;;1.30;;
6937;SDS011;40040;42.706;23.372;2022-11-20T04:33:29;0.90;;;0.90;;
6937;SDS011;40040;42.706;23.372;2022-11-20T04:35:59;1.70;;;1.60;;
6937;SDS011;40040;42.706;23.372;2022-11-20T04:38:27;1.27;;;1.17;;
6937;SDS011;40040;42.706;23.372;2022-11-20T04:40:55;1.25;;;1.25;;
6937;SDS011;40040;42.706;23.372;2022-11-20T04:43:25;1.35;;;1.30;;
6937;SDS011;40040;42.706;23.372;2022-11-20T04:45:53;1.10;;;1.10;;
6937;SDS011;40040;42.706;23.372;2022-11-20T04:48:20;2.05;;;1.85;;
6937;SDS011;40040;42.706;23.372;2022-11-20T04:50:47;1.40;;;1.27;;
6937;SDS011;40040;42.706;23.372;2022-11-20T04:53:14;1.40;;;1.40;;
6937;SDS011;40040;42.706;23.372;2022-11-20T04:55:40;2.03;;;1.90;;
6937;SDS011;40040;42.706;23.372;2022-11-20T04:58:07;2.38;;;2.17;;
6937;SDS011;40040;42.706;23.372;2022-11-20T05:00:36;2.00;;;1.90;;
6937;SDS011;40040;42.706;23.372;2022-11-20T05:03:03;1.10;;;1.00;;
6937;SDS011;40040;42.706;23.372;2022-11-20T05:05:30;4.68;;;1.77;;
6937;SDS011;40040;42.706;23.372;2022-11-20T05:07:57;2.40;;;1.70;;
6937;SDS011;40040;42.706;23.372;2022-11-20T05:10:25;2.13;;;1.98;;
6937;SDS011;40040;42.706;23.372;2022-11-20T05:12:51;2.27;;;2.17;;
6937;SDS011;40040;42.706;23.372;2022-11-20T05:15:18;2.50;;;2.33;;
6937;SDS011;40040;42.706;23.372;2022-11-20T05:17:50;3.60;;;1.80;;
6937;SDS011;40040;42.706;23.372;2022-11-20T05:20:18;2.03;;;1.90;;
6937;SDS011;40040;42.706;23.372;2022-11-20T05:22:45;1.70;;;1.70;;
6937;SDS011;40040;42.706;23.372;2022-11-20T05:25:12;1.17;;;1.10;;
6937;SDS011;40040;42.706;23.372;2022-11-20T05:27:39;1.05;;;1.05;;
6937;SDS011;40040;42.706;23.372;2022-11-20T05:30:06;1.27;;;1.17;;
6937;SDS011;40040;42.706;23.372;2022-11-20T05:32:34;1.00;;;1.00;;
6937;SDS011;40040;42.706;23.372;2022-11-20T05:35:02;1.50;;;1.27;;
6937;SDS011;40040;42.706;23.372;2022-11-20T05:37:30;1.55;;;1.30;;
6937;SDS011;40040;42.706;23.372;2022-11-20T05:39:57;2.42;;;1.50;;
6937;SDS011;40040;42.706;23.372;2022-11-20T05:42:24;1.83;;;1.73;;
6937;SDS011;40040;42.706;23.372;2022-11-20T05:44:56;1.83;;;1.73;;
6937;SDS011;40040;42.706;23.372;2022-11-20T05:47:23;1.20;;;1.20;;
6937;SDS011;40040;42.706;23.372;2022-11-20T05:49:50;1.50;;;1.40;;
6937;SDS011;40040;42.706;23.372;2022-11-20T05:52:18;1.45;;;1.35;;
6937;SDS011;40040;42.706;23.372;2022-11-20T05:54:45;1.40;;;1.40;;
6937;SDS011;40040;42.706;23.372;2022-11-20T05:57:12;1.35;;;1.10;;
6937;SDS011;40040;42.706;23.372;2022-11-20T05:59:39;3.58;;;1.42;;
6937;SDS011;40040;42.706;23.372;2022-11-20T06:02:06;1.23;;;1.20;;
6937;SDS011;40040;42.706;23.372;2022-11-20T06:04:33;1.25;;;1.25;;
6937;SDS011;40040;42.706;23.372;2022-11-20T06:06:59;1.65;;;1.42;;
6937;SDS011;40040;42.706;23.372;2022-11-20T06:09:27;1.88;;;1.08;;
6937;SDS011;40040;42.706;23.372;2022-11-20T06:11:55;1.83;;;1.73;;
6937;SDS011;40040;42.706;23.372;2022-11-20T06:14:22;1.23;;;1.05;;
6937;SDS011;40040;42.706;23.372;2022-11-20T06:16:49;0.90;;;0.90;;
6937;SDS011;40040;42.706;23.372;2022-11-20T06:19:16;1.20;;;1.10;;
6937;SDS011;40040;42.706;23.372;2022-11-20T06:21:43;1.13;;;1.02;;
6937;SDS011;40040;42.706;23.372;2022-11-20T06:24:10;1.38;;;1.27;;
6937;SDS011;40040;42.706;23.372;2022-11-20T06:26:38;1.05;;;1.02;;
6937;SDS011;40040;42.706;23.372;2022-11-20T06:29:05;1.55;;;1.23;;
6937;SDS011;40040;42.706;23.372;2022-11-20T06:31:32;2.58;;;1.35;;
6937;SDS011;40040;42.706;23.372;2022-11-20T06:34:02;2.78;;;1.38;;
6937;SDS011;40040;42.706;23.372;2022-11-20T06:36:29;1.52;;;1.27;;
6937;SDS011;40040;42.706;23.372;2022-11-20T06:38:56;2.00;;;1.30;;
6937;SDS011;40040;42.706;23.372;2022-11-20T06:41:23;1.75;;;1.35;;
6937;SDS011;40040;42.706;23.372;2022-11-20T06:43:51;1.05;;;1.05;;
6937;SDS011;40040;42.706;23.372;2022-11-20T06:46:19;1.17;;;1.00;;
6937;SDS011;40040;42.706;23.372;2022-11-20T06:48:46;1.25;;;1.17;;
6937;SDS011;40040;42.706;23.372;2022-11-20T06:51:13;1.67;;;1.20;;
6937;SDS011;40040;42.706;23.372;2022-11-20T06:53:40;1.95;;;1.10;;
6937;SDS011;40040;42.706;23.372;2022-11-20T06:56:07;2.10;;;1.85;;
6937;SDS011;40040;42.706;23.372;2022-11-20T06:58:34;5.50;;;3.70;;
6937;SDS011;40040;42.706;23.372;2022-11-20T07:01:04;1.70;;;1.60;;
6937;SDS011;40040;42.706;23.372;2022-11-20T07:03:33;5.85;;;2.70;;
6937;SDS011;40040;42.706;23.372;2022-11-20T07:06:00;4.35;;;3.20;;
6937;SDS011;40040;42.706;23.372;2022-11-20T07:08:27;5.40;;;4.45;;
6937;SDS011;40040;42.706;23.372;2022-11-20T07:10:56;2.97;;;2.08;;
6937;SDS011;40040;42.706;23.372;2022-11-20T07:13:24;2.95;;;2.65;;
6937;SDS011;40040;42.706;23.372;2022-11-20T07:15:51;3.70;;;3.42;;
6937;SDS011;40040;42.706;23.372;2022-11-20T07:18:20;4.97;;;3.08;;
6937;SDS011;40040;42.706;23.372;2022-11-20T07:20:47;37.70;;;16.00;;
6937;SDS011;40040;42.706;23.372;2022-11-20T07:23:14;30.17;;;15.57;;
6937;SDS011;40040;42.706;23.372;2022-11-20T07:25:41;46.70;;;20.90;;
6937;SDS011;40040;42.706;23.372;2022-11-20T07:28:08;18.58;;;9.40;;
6937;SDS011;40040;42.706;23.372;2022-11-20T07:30:36;16.83;;;9.95;;
6937;SDS011;40040;42.706;23.372;2022-11-20T07:33:03;34.08;;;18.33;;
6937;SDS011;40040;42.706;23.372;2022-11-20T07:35:31;121.28;;;55.72;;
6937;SDS011;40040;42.706;23.372;2022-11-20T07:37:58;8.82;;;5.78;;
6937;SDS011;40040;42.706;23.372;2022-11-20T07:40:25;4.93;;;3.88;;
6937;SDS011;40040;42.706;23.372;2022-11-20T07:42:53;3.75;;;2.83;;
6937;SDS011;40040;42.706;23.372;2022-11-20T07:45:21;15.27;;;9.20;;
6937;SDS011;40040;42.706;23.372;2022-11-20T07:47:49;7.70;;;4.82;;
6937;SDS011;40040;42.706;23.372;2022-11-20T07:50:17;4.30;;;3.00;;
6937;SDS011;40040;42.706;23.372;2022-11-20T07:52:45;9.02;;;5.25;;
6937;SDS011;40040;42.706;23.372;2022-11-20T07:55:14;17.55;;;11.60;;
6937;SDS011;40040;42.706;23.372;2022-11-20T07:59:30;6.03;;;5.43;;
6937;SDS011;40040;42.706;23.372;2022-11-20T08:01:43;13.50;;;9.02;;
6937;SDS011;40040;42.706;23.372;2022-11-20T08:04:10;6.00;;;5.05;;
6937;SDS011;40040;42.706;23.372;2022-11-20T08:06:37;16.45;;;9.07;;
6937;SDS011;40040;42.706;23.372;2022-11-20T08:09:06;13.05;;;7.60;;
6937;SDS011;40040;42.706;23.372;2022-11-20T08:11:32;10.20;;;6.10;;
6937;SDS011;40040;42.706;23.372;2022-11-20T08:14:22;12.55;;;7.28;;
6937;SDS011;40040;42.706;23.372;2022-11-20T08:16:49;19.15;;;10.30;;
6937;SDS011;40040;42.706;23.372;2022-11-20T08:19:16;2.65;;;1.10;;
6937;SDS011;40040;42.706;23.372;2022-11-20T08:21:44;5.43;;;3.20;;
6937;SDS011;40040;42.706;23.372;2022-11-20T08:24:13;45.97;;;22.70;;
6937;SDS011;40040;42.706;23.372;2022-11-20T08:26:40;18.73;;;9.73;;
6937;SDS011;40040;42.706;23.372;2022-11-20T08:29:07;12.10;;;7.95;;
6937;SDS011;40040;42.706;23.372;2022-11-20T08:31:34;31.08;;;14.93;;
6937;SDS011;40040;42.706;23.372;2022-11-20T08:34:01;24.70;;;12.23;;
6937;SDS011;40040;42.706;23.372;2022-11-20T08:36:28;14.77;;;7.38;;
6937;SDS011;40040;42.706;23.372;2022-11-20T08:39:04;9.43;;;4.95;;
6937;SDS011;40040;42.706;23.372;2022-11-20T08:41:32;8.43;;;5.18;;
6937;SDS011;40040;42.706;23.372;2022-11-20T08:44:00;8.10;;;3.78;;
6937;SDS011;40040;42.706;23.372;2022-11-20T08:46:31;3.78;;;3.00;;
6937;SDS011;40040;42.706;23.372;2022-11-20T08:49:00;2.72;;;2.40;;
6937;SDS011;40040;42.706;23.372;2022-11-20T08:51:27;2.97;;;2.38;;
6937;SDS011;40040;42.706;23.372;2022-11-20T08:53:54;4.18;;;3.17;;
6937;SDS011;40040;42.706;23.372;2022-11-20T08:56:21;3.67;;;3.03;;
6937;SDS011;40040;42.706;23.372;2022-11-20T08:58:49;2.80;;;1.70;;
6937;SDS011;40040;42.706;23.372;2022-11-20T09:01:17;2.28;;;1.17;;
6937;SDS011;40040;42.706;23.372;2022-11-20T09:03:45;1.40;;;1.20;;
6937;SDS011;40040;42.706;23.372;2022-11-20T09:06:12;4.35;;;1.40;;
6937;SDS011;40040;42.706;23.372;2022-11-20T09:08:40;1.58;;;1.33;;
6937;SDS011;40040;42.706;23.372;2022-11-20T09:11:07;2.03;;;1.60;;
6937;SDS011;40040;42.706;23.372;2022-11-20T09:13:37;3.30;;;1.70;;
6937;SDS011;40040;42.706;23.372;2022-11-20T09:16:07;3.55;;;2.10;;
6937;SDS011;40040;42.706;23.372;2022-11-20T09:18:37;2.30;;;2.10;;
6937;SDS011;40040;42.706;23.372;2022-11-20T09:21:05;4.18;;;2.30;;
6937;SDS011;40040;42.706;23.372;2022-11-20T09:23:33;3.05;;;2.30;;
6937;SDS011;40040;42.706;23.372;2022-11-20T09:26:02;5.05;;;2.85;;
6937;SDS011;40040;42.706;23.372;2022-11-20T09:28:30;4.70;;;3.33;;
6937;SDS011;40040;42.706;23.372;2022-11-20T09:30:57;3.17;;;2.80;;
6937;SDS011;40040;42.706;23.372;2022-11-20T09:33:26;4.20;;;3.10;;
6937;SDS011;40040;42.706;23.372;2022-11-20T09:35:53;2.83;;;2.60;;
6937;SDS011;40040;42.706;23.372;2022-11-20T09:38:19;1.80;;;1.70;;
6937;SDS011;40040;42.706;23.372;2022-11-20T09:40:48;1.63;;;1.58;;
6937;SDS011;40040;42.706;23.372;2022-11-20T09:43:23;1.70;;;1.70;;
6937;SDS011;40040;42.706;23.372;2022-11-20T09:46:02;2.08;;;1.92;;
6937;SDS011;40040;42.706;23.372;2022-11-20T09:48:45;2.67;;;1.50;;
6937;SDS011;40040;42.706;23.372;2022-11-20T09:51:25;1.08;;;1.08;;
6937;SDS011;40040;42.706;23.372;2022-11-20T09:54:07;1.20;;;1.20;;
6937;SDS011;40040;42.706;23.372;2022-11-20T09:56:42;1.48;;;1.48;;
6937;SDS011;40040;42.706;23.372;2022-11-20T09:59:15;2.00;;;1.90;;
6937;SDS011;40040;42.706;23.372;2022-11-20T10:01:53;2.50;;;2.38;;
6937;SDS011;40040;42.706;23.372;2022-11-20T10:04:22;2.42;;;2.13;;
6937;SDS011;40040;42.706;23.372;2022-11-20T10:06:51;8.23;;;5.78;;
6937;SDS011;40040;42.706;23.372;2022-11-20T10:09:27;5.55;;;3.63;;
6937;SDS011;40040;42.706;23.372;2022-11-20T10:12:01;7.53;;;4.10;;
6937;SDS011;40040;42.706;23.372;2022-11-20T10:14:38;3.90;;;3.45;;
6937;SDS011;40040;42.706;23.372;2022-11-20T10:17:21;3.95;;;3.38;;
6937;SDS011;40040;42.706;23.372;2022-11-20T10:20:10;3.53;;;3.08;;
6937;SDS011;40040;42.706;23.372;2022-11-20T10:22:50;5.25;;;3.75;;
6937;SDS011;40040;42.706;23.372;2022-11-20T10:25:30;7.30;;;6.28;;
6937;SDS011;40040;42.706;23.372;2022-11-20T10:31:00;9.30;;;5.97;;
6937;SDS011;40040;42.706;23.372;2022-11-20T10:33:31;9.07;;;5.55;;
6937;SDS011;40040;42.706;23.372;2022-11-20T10:36:07;11.27;;;5.20;;
6937;SDS011;40040;42.706;23.372;2022-11-20T10:38:41;5.18;;;3.47;;
6937;SDS011;40040;42.706;23.372;2022-11-20T10:41:21;5.45;;;3.00;;
6937;SDS011;40040;42.706;23.372;2022-11-20T10:43:58;3.33;;;2.45;;
6937;SDS011;40040;42.706;23.372;2022-11-20T10:46:32;4.10;;;3.03;;
6937;SDS011;40040;42.706;23.372;2022-11-20T10:49:05;4.35;;;2.92;;
6937;SDS011;40040;42.706;23.372;2022-11-20T10:51:43;4.38;;;2.58;;
6937;SDS011;40040;42.706;23.372;2022-11-20T10:54:22;2.50;;;2.22;;
6937;SDS011;40040;42.706;23.372;2022-11-20T10:57:00;4.75;;;3.78;;
6937;SDS011;40040;42.706;23.372;2022-11-20T10:59:38;4.32;;;3.50;;
6937;SDS011;40040;42.706;23.372;2022-11-20T11:02:17;7.30;;;6.25;;
6937;SDS011;40040;42.706;23.372;2022-11-20T11:04:46;7.68;;;4.30;;
6937;SDS011;40040;42.706;23.372;2022-11-20T11:07:16;20.88;;;15.40;;
6937;SDS011;40040;42.706;23.372;2022-11-20T11:09:47;38.17;;;21.77;;
6937;SDS011;40040;42.706;23.372;2022-11-20T11:12:15;19.75;;;10.23;;
6937;SDS011;40040;42.706;23.372;2022-11-20T11:14:47;7.70;;;4.72;;
6937;SDS011;40040;42.706;23.372;2022-11-20T11:17:19;7.00;;;4.40;;
6937;SDS011;40040;42.706;23.372;2022-11-20T11:19:58;2.80;;;2.25;;
6937;SDS011;40040;42.706;23.372;2022-11-20T11:22:28;5.35;;;1.80;;
6937;SDS011;40040;42.706;23.372;2022-11-20T11:24:56;3.58;;;2.10;;
6937;SDS011;40040;42.706;23.372;2022-11-20T11:27:23;1.48;;;1.38;;
6937;SDS011;40040;42.706;23.372;2022-11-20T11:29:50;1.00;;;1.00;;
6937;SDS011;40040;42.706;23.372;2022-11-20T11:32:30;0.88;;;0.88;;
6937;SDS011;40040;42.706;23.372;2022-11-20T11:35:00;1.35;;;0.80;;
6937;SDS011;40040;42.706;23.372;2022-11-20T11:37:33;1.10;;;1.10;;
6937;SDS011;40040;42.706;23.372;2022-11-20T11:40:02;0.73;;;0.73;;
6937;SDS011;40040;42.706;23.372;2022-11-20T11:42:31;5.00;;;3.38;;
6937;SDS011;40040;42.706;23.372;2022-11-20T11:44:58;6.80;;;5.05;;
6937;SDS011;40040;42.706;23.372;2022-11-20T11:47:31;3.80;;;2.45;;
6937;SDS011;40040;42.706;23.372;2022-11-20T11:50:16;3.08;;;1.88;;
6937;SDS011;40040;42.706;23.372;2022-11-20T11:52:48;2.67;;;1.63;;
6937;SDS011;40040;42.706;23.372;2022-11-20T11:55:26;5.03;;;1.30;;
6937;SDS011;40040;42.706;23.372;2022-11-20T11:57:59;10.48;;;5.18;;
6937;SDS011;40040;42.706;23.372;2022-11-20T12:00:34;9.50;;;4.20;;
6937;SDS011;40040;42.706;23.372;2022-11-20T12:03:05;30.63;;;15.50;;
6937;SDS011;40040;42.706;23.372;2022-11-20T12:05:40;9.75;;;6.38;;
6937;SDS011;40040;42.706;23.372;2022-11-20T12:08:14;9.52;;;6.15;;
6937;SDS011;40040;42.706;23.372;2022-11-20T12:10:47;59.35;;;28.13;;
6937;SDS011;40040;42.706;23.372;2022-11-20T12:13:30;16.25;;;10.68;;
6937;SDS011;40040;42.706;23.372;2022-11-20T12:16:04;10.32;;;6.55;;
6937;SDS011;40040;42.706;23.372;2022-11-20T12:18:31;8.73;;;4.95;;
6937;SDS011;40040;42.706;23.372;2022-11-20T12:21:04;19.50;;;12.68;;
6937;SDS011;40040;42.706;23.372;2022-11-20T12:23:47;27.70;;;17.45;;
6937;SDS011;40040;42.706;23.372;2022-11-20T12:26:27;7.57;;;5.05;;
6937;SDS011;40040;42.706;23.372;2022-11-20T12:29:08;8.02;;;4.47;;
6937;SDS011;40040;42.706;23.372;2022-11-20T12:31:47;19.33;;;13.73;;
6937;SDS011;40040;42.706;23.372;2022-11-20T12:34:32;20.27;;;13.60;;
6937;SDS011;40040;42.706;23.372;2022-11-20T12:37:13;13.73;;;8.63;;
6937;SDS011;40040;42.706;23.372;2022-11-20T12:39:49;11.40;;;6.93;;
6937;SDS011;40040;42.706;23.372;2022-11-20T12:42:20;16.50;;;9.15;;
6937;SDS011;40040;42.706;23.372;2022-11-20T12:45:21;19.00;;;8.50;;
6937;SDS011;40040;42.706;23.372;2022-11-20T12:48:03;6.45;;;5.82;;
6937;SDS011;40040;42.706;23.372;2022-11-20T12:50:44;30.67;;;17.77;;
6937;SDS011;40040;42.706;23.372;2022-11-20T12:53:25;42.53;;;25.92;;
6937;SDS011;40040;42.706;23.372;2022-11-20T12:56:00;37.03;;;23.13;;
6937;SDS011;40040;42.706;23.372;2022-11-20T12:58:39;14.48;;;10.80;;
6937;SDS011;40040;42.706;23.372;2022-11-20T13:01:17;14.40;;;10.10;;
6937;SDS011;40040;42.706;23.372;2022-11-20T13:04:07;9.63;;;7.95;;
6937;SDS011;40040;42.706;23.372;2022-11-20T13:06:42;12.90;;;8.43;;
6937;SDS011;40040;42.706;23.372;2022-11-20T13:09:12;3.88;;;3.58;;
6937;SDS011;40040;42.706;23.372;2022-11-20T13:11:50;18.45;;;11.88;;
6937;SDS011;40040;42.706;23.372;2022-11-20T13:14:32;8.77;;;4.85;;
6937;SDS011;40040;42.706;23.372;2022-11-20T13:17:08;7.38;;;4.88;;
6937;SDS011;40040;42.706;23.372;2022-11-20T13:19:52;3.67;;;1.90;;
6937;SDS011;40040;42.706;23.372;2022-11-20T13:22:25;5.70;;;2.97;;
6937;SDS011;40040;42.706;23.372;2022-11-20T13:25:24;3.83;;;3.08;;
6937;SDS011;40040;42.706;23.372;2022-11-20T13:28:00;2.28;;;1.83;;
6937;SDS011;40040;42.706;23.372;2022-11-20T13:30:34;2.17;;;1.80;;
6937;SDS011;40040;42.706;23.372;2022-11-20T13:33:04;51.78;;;26.90;;
6937;SDS011;40040;42.706;23.372;2022-11-20T13:35:36;65.00;;;33.85;;
6937;SDS011;40040;42.706;23.372;2022-11-20T13:38:12;22.52;;;12.48;;
6937;SDS011;40040;42.706;23.372;2022-11-20T13:40:51;5.88;;;4.20;;
6937;SDS011;40040;42.706;23.372;2022-11-20T13:43:32;12.90;;;10.23;;
6937;SDS011;40040;42.706;23.372;2022-11-20T13:46:01;6.50;;;4.55;;
6937;SDS011;40040;42.706;23.372;2022-11-20T13:48:30;7.80;;;5.63;;
6937;SDS011;40040;42.706;23.372;2022-11-20T13:57:22;3.65;;;2.20;;
6937;SDS011;40040;42.706;23.372;2022-11-20T14:00:09;3.03;;;2.00;;
6937;SDS011;40040;42.706;23.372;2022-11-20T14:02:38;28.13;;;15.25;;
6937;SDS011;40040;42.706;23.372;2022-11-20T14:05:11;11.68;;;7.05;;
6937;SDS011;40040;42.706;23.372;2022-11-20T14:07:45;5.70;;;3.17;;
6937;SDS011;40040;42.706;23.372;2022-11-20T14:10:19;5.07;;;3.80;;
6937;SDS011;40040;42.706;23.372;2022-11-20T14:12:47;7.60;;;5.28;;
6937;SDS011;40040;42.706;23.372;2022-11-20T14:15:25;7.57;;;5.47;;
6937;SDS011;40040;42.706;23.372;2022-11-20T14:17:54;11.68;;;9.20;;
6937;SDS011;40040;42.706;23.372;2022-11-20T14:20:22;8.70;;;5.40;;
6937;SDS011;40040;42.706;23.372;2022-11-20T14:22:51;5.35;;;4.40;;
6937;SDS011;40040;42.706;23.372;2022-11-20T14:25:20;6.93;;;4.75;;
6937;SDS011;40040;42.706;23.372;2022-11-20T14:27:52;9.30;;;6.03;;
6937;SDS011;40040;42.706;23.372;2022-11-20T14:30:21;8.95;;;6.00;;
6937;SDS011;40040;42.706;23.372;2022-11-20T14:32:51;15.15;;;9.55;;
6937;SDS011;40040;42.706;23.372;2022-11-20T14:35:20;20.83;;;10.77;;
6937;SDS011;40040;42.706;23.372;2022-11-20T14:37:50;26.58;;;13.68;;
6937;SDS011;40040;42.706;23.372;2022-11-20T14:40:25;16.73;;;11.02;;
6937;SDS011;40040;42.706;23.372;2022-11-20T14:42:54;18.30;;;11.00;;
6937;SDS011;40040;42.706;23.372;2022-11-20T14:45:21;20.10;;;11.55;;
6937;SDS011;40040;42.706;23.372;2022-11-20T14:47:49;19.85;;;10.88;;
6937;SDS011;40040;42.706;23.372;2022-11-20T14:50:19;20.13;;;11.23;;
6937;SDS011;40040;42.706;23.372;2022-11-20T14:52:50;23.38;;;10.90;;
6937;SDS011;40040;42.706;23.372;2022-11-20T14:55:27;406.75;;;144.10;;
6937;SDS011;40040;42.706;23.372;2022-11-20T14:57:56;139.13;;;56.03;;
6937;SDS011;40040;42.706;23.372;2022-11-20T15:00:24;77.93;;;36.28;;
6937;SDS011;40040;42.706;23.372;2022-11-20T15:02:53;149.68;;;55.33;;
6937;SDS011;40040;42.706;23.372;2022-11-20T15:05:21;142.93;;;59.60;;
6937;SDS011;40040;42.706;23.372;2022-11-20T15:07:50;216.00;;;85.18;;
6937;SDS011;40040;42.706;23.372;2022-11-20T15:10:21;248.35;;;97.47;;
6937;SDS011;40040;42.706;23.372;2022-11-20T15:12:50;137.90;;;54.63;;